Time;durP1;ratioP1;P1;durP2;ratioP2;P2;SDS_P1;SDS_P2;PMS_P1;PMS_P2;Temp;Humidity;BMP_temperature;BMP_pressure;BME280_temperature;BME280_humidity;BME280_pressure;Samples;Min_cycle;Max_cycle;Signal;HPM_P1;HPM_P2
2022/05/25 00:00:45;;;;;;;4.82;1.08;;;;;;;26.81;32.71;102419.63;4182780;28;20044;-67
2022/05/25 00:02:46;;;;;;;2.22;1.10;;;;;;;26.77;33.41;102418.50;4184382;28;20099;-66
2022/05/25 00:04:54;;;;;;;3.55;1.98;;;;;;;26.81;33.71;102419.63;4181176;28;20040;-66
2022/05/25 00:06:56;;;;;;;4.40;1.58;;;;;;;26.83;33.33;102417.34;4195632;28;20041;-65
2022/05/25 00:08:57;;;;;;;4.75;1.45;;;;;;;26.81;33.35;102408.38;4171396;28;20049;-66
2022/05/25 00:10:59;;;;;;;3.33;1.30;;;;;;;26.82;33.80;102410.06;4166906;28;20029;-67
2022/05/25 00:13:03;;;;;;;2.75;1.10;;;;;;;26.79;33.63;102421.84;4166226;28;20041;-66
2022/05/25 00:15:09;;;;;;;4.20;1.20;;;;;;;26.81;33.41;102419.63;4165321;28;20534;-66
2022/05/25 00:17:11;;;;;;;2.85;1.00;;;;;;;26.83;33.33;102416.50;4170845;28;20083;-66
2022/05/25 00:21:32;;;;;;;4.15;1.20;;;;;;;26.82;33.87;102424.09;4171979;28;20451;-65
2022/05/25 00:23:33;;;;;;;17.00;2.08;;;;;;;26.83;34.07;102425.78;4177384;28;20103;-66
2022/05/25 00:25:37;;;;;;;11.13;1.65;;;;;;;26.84;34.21;102429.41;4183186;28;20534;-65
2022/05/25 00:27:41;;;;;;;7.13;1.30;;;;;;;26.84;34.48;102429.41;4182824;28;20550;-66
2022/05/25 00:29:46;;;;;;;11.10;1.37;;;;;;;26.82;34.37;102432.53;4167231;28;20444;-65
2022/05/25 00:31:47;;;;;;;5.20;1.20;;;;;;;26.85;34.28;102436.75;4160904;28;20046;-65
2022/05/25 00:33:48;;;;;;;14.13;1.55;;;;;;;26.84;34.27;102441.50;4172953;28;20041;-65
2022/05/25 00:35:50;;;;;;;3.08;1.30;;;;;;;26.86;34.62;102444.03;4175673;28;20099;-65
2022/05/25 00:37:51;;;;;;;3.65;1.45;;;;;;;26.81;34.79;102447.69;4165655;28;20041;-65
2022/05/25 00:39:52;;;;;;;3.42;1.45;;;;;;;26.87;34.71;102459.75;4166360;28;20037;-66
2022/05/25 00:41:57;;;;;;;8.27;1.70;;;;;;;26.86;34.76;102456.09;4165352;28;20080;-65
2022/05/25 00:43:59;;;;;;;4.38;1.15;;;;;;;26.88;35.34;102446.56;4166063;28;20096;-65
2022/05/25 00:46:06;;;;;;;8.45;1.20;;;;;;;26.83;35.25;102451.06;4165680;28;20037;-66
2022/05/25 00:48:15;;;;;;;5.68;1.40;;;;;;;26.88;35.21;102452.16;4152578;28;20075;-66
2022/05/25 00:50:20;;;;;;;5.95;1.60;;;;;;;26.88;35.72;102464.25;4163978;28;20099;-66
2022/05/25 00:52:22;;;;;;;3.63;1.20;;;;;;;26.88;35.92;102453.00;4150486;28;20037;-67
2022/05/25 00:54:33;;;;;;;6.82;1.33;;;;;;;26.89;36.14;102459.47;4162276;28;20042;-66
2022/05/25 00:56:41;;;;;;;4.20;1.38;;;;;;;26.82;36.51;102443.75;4148450;28;20058;-66
2022/05/25 00:58:51;;;;;;;5.32;1.52;;;;;;;26.88;36.44;102458.63;4151861;28;20420;-66
2022/05/25 01:00:52;;;;;;;5.53;1.20;;;;;;;26.91;36.85;102474.91;4147214;28;20469;-65
2022/05/25 01:03:08;;;;;;;4.00;1.38;;;;;;;26.90;36.86;102463.97;4148465;28;20034;-66
2022/05/25 01:05:13;;;;;;;3.22;1.38;;;;;;;26.92;36.93;102470.13;4149527;28;20050;-66
2022/05/25 01:07:32;;;;;;;2.92;1.08;;;;;;;26.91;37.13;102469.28;4149049;28;20042;-66
2022/05/25 01:10:08;;;;;;;6.55;1.80;;;;;;;26.92;36.79;102470.13;4149513;28;20083;-67
2022/05/25 01:12:30;;;;;;;2.97;1.50;;;;;;;26.95;37.09;102463.97;4149792;28;20531;-67
2022/05/25 01:15:22;;;;;;;3.85;1.20;;;;;;;26.93;37.06;102469.00;4149575;28;20374;-67
2022/05/25 01:17:43;;;;;;;4.45;1.27;;;;;;;26.93;37.25;102472.66;4115034;28;20086;-67
2022/05/25 01:20:27;;;;;;;2.58;1.30;;;;;;;26.88;37.35;102467.06;4114315;28;20557;-67
2022/05/25 01:23:27;;;;;;;3.72;1.42;;;;;;;26.93;37.71;102488.66;4106034;28;20047;-67
2022/05/25 01:25:46;;;;;;;3.30;1.13;;;;;;;26.97;37.45;102490.63;4148379;28;20045;-66
2022/05/25 01:27:51;;;;;;;2.75;1.50;;;;;;;26.99;37.64;102498.78;4149145;28;20046;-67
2022/05/25 01:30:17;;;;;;;2.33;1.25;;;;;;;26.82;37.75;102488.69;4149382;28;20441;-67
2022/05/25 01:32:36;;;;;;;5.07;1.52;;;;;;;26.95;38.06;102512.56;4149217;28;20038;-67
2022/05/25 01:34:53;;;;;;;2.65;1.13;;;;;;;26.96;38.02;102516.19;4149080;28;20026;-67
2022/05/25 01:37:05;;;;;;;1.85;1.02;;;;;;;26.89;37.32;102504.41;4148766;28;20437;-67
2022/05/25 01:39:14;;;;;;;4.72;1.15;;;;;;;26.93;37.48;102513.94;4149023;28;20034;-67
2022/05/25 01:41:29;;;;;;;3.85;1.60;;;;;;;26.96;37.11;102521.81;4150359;28;20042;-66
2022/05/25 01:43:44;;;;;;;3.28;1.77;;;;;;;26.72;37.49;102483.09;4149114;28;20042;-66
2022/05/25 01:46:04;;;;;;;3.47;1.17;;;;;;;26.86;37.39;102501.06;4148958;28;20038;-66
2022/05/25 01:48:10;;;;;;;3.65;1.23;;;;;;;26.93;37.81;102506.34;4161538;28;20049;-65
2022/05/25 01:50:30;;;;;;;5.55;1.38;;;;;;;26.94;37.53;102508.06;4170870;28;20455;-65
2022/05/25 01:52:54;;;;;;;5.15;1.40;;;;;;;26.95;37.55;102512.56;4174109;28;20070;-66
2022/05/25 01:55:07;;;;;;;16.88;1.70;;;;;;;26.95;38.18;102509.75;4168640;28;20087;-66
2022/05/25 01:57:12;;;;;;;19.42;2.33;;;;;;;26.97;39.09;102523.50;4164213;28;20037;-67
2022/05/25 01:59:16;;;;;;;35.58;3.65;;;;;;;26.98;39.77;102531.63;4164773;28;20103;-65
2022/05/25 02:01:17;;;;;;;17.17;1.83;;;;;;;26.99;39.85;102521.25;4181157;28;20028;-66
2022/05/25 02:05:50;;;;;;;21.23;2.70;;;;;;;27.01;39.96;102535.84;4198402;28;20109;-67
2022/05/25 02:08:18;;;;;;;13.55;1.77;;;;;;;27.00;40.01;102534.16;4182733;28;20385;-66
2022/05/25 02:10:34;;;;;;;16.05;2.35;;;;;;;27.00;40.04;102539.78;4181119;28;20095;-65
2022/05/25 02:12:39;;;;;;;11.88;2.05;;;;;;;27.03;39.71;102544.81;4155725;28;20111;-66
2022/05/25 02:15:06;;;;;;;10.35;1.85;;;;;;;27.03;39.94;102544.81;4180511;28;20037;-66
2022/05/25 02:17:32;;;;;;;4.70;1.75;;;;;;;27.03;39.68;102547.63;4151631;28;20114;-65
2022/05/25 02:19:37;;;;;;;14.63;2.08;;;;;;;27.04;39.59;102536.13;4194283;28;20032;-66
2022/05/25 02:21:50;;;;;;;7.75;1.63;;;;;;;27.03;39.33;102539.19;4177965;28;20041;-67
2022/05/25 02:24:28;;;;;;;8.93;2.05;;;;;;;27.03;39.19;102537.25;4175081;28;20091;-66
2022/05/25 02:26:51;;;;;;;7.70;1.50;;;;;;;27.01;38.90;102536.69;4179396;28;20774;-65
2022/05/25 02:28:59;;;;;;;7.60;1.88;;;;;;;27.04;39.08;102535.28;4172613;28;20075;-67
2022/05/25 02:31:03;;;;;;;6.43;1.52;;;;;;;26.97;39.08;102534.72;4177100;28;20028;-65
2022/05/25 02:33:10;;;;;;;5.97;1.83;;;;;;;27.03;38.75;102547.63;4171838;28;20041;-66
2022/05/25 02:35:14;;;;;;;3.75;1.40;;;;;;;27.02;39.05;102548.75;4177570;28;20106;-65
2022/05/25 02:37:20;;;;;;;9.52;1.60;;;;;;;27.01;38.68;102533.88;4180335;28;20033;-65
2022/05/25 02:39:22;;;;;;;6.68;1.42;;;;;;;27.02;38.56;102534.72;4181184;28;20086;-65
2022/05/25 02:41:30;;;;;;;6.20;1.50;;;;;;;27.00;38.54;102525.75;4181257;28;20075;-65
2022/05/25 02:43:32;;;;;;;4.97;1.48;;;;;;;27.00;38.54;102520.13;4179292;28;20476;-65
2022/05/25 02:45:34;;;;;;;6.45;1.33;;;;;;;26.99;38.50;102515.63;4180088;28;20477;-66
2022/05/25 02:47:35;;;;;;;8.40;2.15;;;;;;;26.99;38.46;102512.81;4180317;28;20110;-65
2022/05/25 02:49:37;;;;;;;5.72;1.50;;;;;;;26.96;38.35;102511.41;4179617;28;20044;-65
2022/05/25 02:51:39;;;;;;;6.38;1.50;;;;;;;26.98;38.30;102523.19;4180787;28;20526;-65
2022/05/25 02:53:40;;;;;;;7.22;1.23;;;;;;;26.94;38.31;102515.63;4180738;28;20538;-65
2022/05/25 02:55:42;;;;;;;6.95;1.70;;;;;;;26.97;38.10;102524.34;4180156;28;20075;-65
2022/05/25 02:57:43;;;;;;;10.93;1.58;;;;;;;26.97;38.41;102526.31;4180383;28;20111;-65
2022/05/25 02:59:46;;;;;;;8.80;1.60;;;;;;;26.97;38.25;102526.31;4180616;28;20167;-66
2022/05/25 03:01:48;;;;;;;10.20;2.03;;;;;;;26.94;37.98;102524.06;4181106;28;20035;-66
2022/05/25 03:03:50;;;;;;;3.92;1.50;;;;;;;26.95;37.91;102531.38;4181097;28;20029;-66
2022/05/25 03:05:52;;;;;;;11.95;2.03;;;;;;;26.96;38.24;102533.06;4181310;28;20103;-66
2022/05/25 03:07:53;;;;;;;4.13;1.52;;;;;;;26.90;38.35;102523.81;4150753;28;20042;-66
2022/05/25 03:09:54;;;;;;;5.07;1.30;;;;;;;26.96;38.00;102530.25;4167583;28;20045;-66
2022/05/25 03:11:56;;;;;;;6.43;1.30;;;;;;;26.95;38.33;102537.00;4166840;28;20045;-66
2022/05/25 03:13:57;;;;;;;6.65;1.50;;;;;;;26.94;37.95;102535.28;4167142;28;20092;-66
2022/05/25 03:16:04;;;;;;;4.65;1.20;;;;;;;26.85;37.79;102526.63;4177302;28;20037;-66
2022/05/25 03:18:06;;;;;;;4.88;1.30;;;;;;;26.93;37.45;102539.22;4177832;28;20540;-66
2022/05/25 03:20:08;;;;;;;5.53;1.27;;;;;;;26.90;37.95;102548.25;4169466;28;20041;-66
2022/05/25 03:22:09;;;;;;;4.88;1.63;;;;;;;26.91;37.58;102558.34;4181140;28;20038;-65
2022/05/25 03:24:11;;;;;;;4.25;1.35;;;;;;;26.91;37.87;102556.38;4172662;28;20090;-66
2022/05/25 03:26:12;;;;;;;2.50;0.90;;;;;;;26.92;38.08;102560.03;4183267;28;20094;-65
2022/05/25 03:28:14;;;;;;;6.50;1.33;;;;;;;26.91;37.78;102552.72;4174233;28;20033;-65
2022/05/25 03:30:16;;;;;;;4.53;1.50;;;;;;;26.90;37.56;102562.28;4170891;28;20083;-65
2022/05/25 03:32:18;;;;;;;3.97;1.27;;;;;;;26.90;37.40;102559.47;4181862;28;20021;-66
2022/05/25 03:34:23;;;;;;;5.05;1.20;;;;;;;26.85;37.70;102549.94;4166428;28;20123;-65
2022/05/25 03:36:24;;;;;;;5.65;1.33;;;;;;;26.89;37.69;102554.97;4149419;28;20038;-65
2022/05/25 03:38:31;;;;;;;6.35;1.02;;;;;;;26.89;37.50;102554.97;4172662;28;20041;-66
2022/05/25 03:40:33;;;;;;;4.82;1.45;;;;;;;26.86;37.74;102557.22;4178522;28;20099;-65
2022/05/25 03:42:36;;;;;;;3.00;1.08;;;;;;;26.82;37.76;102544.88;4167135;28;20046;-65
2022/05/25 03:44:37;;;;;;;4.47;1.17;;;;;;;26.75;37.86;102547.13;4166918;28;20103;-65
2022/05/25 03:46:38;;;;;;;3.22;1.48;;;;;;;26.84;37.88;102559.47;4166426;28;20045;-65
2022/05/25 03:48:43;;;;;;;6.95;1.88;;;;;;;26.77;37.64;102553.31;4166536;28;20491;-66
2022/05/25 03:50:44;;;;;;;6.72;1.67;;;;;;;26.83;37.88;102552.16;4172633;28;20099;-66
2022/05/25 03:52:47;;;;;;;2.65;1.08;;;;;;;26.77;37.92;102546.84;4183106;28;20033;-66
2022/05/25 03:54:48;;;;;;;6.82;1.77;;;;;;;26.83;37.75;102560.59;4182660;28;20075;-65
2022/05/25 03:56:50;;;;;;;3.25;1.10;;;;;;;26.83;37.72;102557.78;4182853;28;20041;-65
2022/05/25 03:58:51;;;;;;;4.88;1.50;;;;;;;26.82;37.89;102556.09;4181667;28;20041;-66
2022/05/25 04:00:53;;;;;;;5.45;1.23;;;;;;;26.82;37.69;102555.28;4182759;28;20033;-65
2022/05/25 04:02:56;;;;;;;4.63;1.33;;;;;;;26.81;37.44;102559.22;4170015;28;20095;-66
2022/05/25 04:05:10;;;;;;;3.80;1.35;;;;;;;26.81;37.52;102554.44;4166805;28;20045;-65
2022/05/25 04:07:12;;;;;;;3.85;1.00;;;;;;;26.81;37.44;102557.25;4166039;28;20095;-65
2022/05/25 04:09:14;;;;;;;4.20;1.48;;;;;;;26.80;37.40;102547.13;4167198;28;20480;-65
2022/05/25 04:11:18;;;;;;;2.88;1.00;;;;;;;26.79;37.66;102548.22;4149565;28;20034;-66
2022/05/25 04:13:25;;;;;;;3.65;1.13;;;;;;;26.73;37.41;102531.69;4167277;28;20033;-66
2022/05/25 04:15:32;;;;;;;2.47;1.30;;;;;;;26.72;37.41;102528.03;4167589;28;20033;-66
2022/05/25 04:17:34;;;;;;;2.00;1.00;;;;;;;26.79;37.53;102539.81;4166132;28;20041;-66
2022/05/25 04:19:42;;;;;;;5.05;1.30;;;;;;;26.78;37.34;102535.31;4167437;28;20076;-66
2022/05/25 04:21:46;;;;;;;6.03;1.15;;;;;;;26.77;37.39;102528.03;4165505;28;20045;-67
2022/05/25 04:23:48;;;;;;;5.03;1.23;;;;;;;26.76;37.42;102540.41;4166568;28;20473;-66
2022/05/25 04:25:52;;;;;;;2.30;1.08;;;;;;;26.77;37.28;102536.47;4148970;28;20569;-67
2022/05/25 04:27:55;;;;;;;2.13;1.13;;;;;;;26.74;37.65;102531.41;4178064;28;20052;-67
2022/05/25 04:29:59;;;;;;;3.65;1.08;;;;;;;26.76;37.40;102536.75;4183138;28;20118;-65
2022/05/25 04:32:04;;;;;;;5.37;1.50;;;;;;;26.75;37.06;102535.88;4174756;28;20050;-65
2022/05/25 04:34:11;;;;;;;;;;;;;;;26.73;37.57;102538.16;4166985;28;20436;-66
2022/05/25 04:36:22;;;;;;;7.50;1.80;;;;;;;26.77;37.27;102546.84;4149546;28;19913;-64
2022/05/25 04:38:23;;;;;;;6.60;1.33;;;;;;;26.74;37.26;102536.16;4167446;28;20041;-66
2022/05/25 04:40:32;;;;;;;4.22;1.20;;;;;;;26.72;37.29;102535.63;4165999;28;20096;-65
2022/05/25 04:42:36;;;;;;;3.50;1.17;;;;;;;26.74;37.52;102542.63;4165886;28;20115;-66
2022/05/25 04:44:41;;;;;;;3.03;1.00;;;;;;;26.70;37.28;102547.13;4166609;28;20465;-66
2022/05/25 04:46:42;;;;;;;3.55;1.17;;;;;;;26.73;37.33;102551.34;4165539;28;20440;-65
2022/05/25 04:48:44;;;;;;;3.53;1.10;;;;;;;26.73;37.34;102545.72;4166261;28;20099;-65
2022/05/25 04:50:46;;;;;;;2.33;1.23;;;;;;;26.72;37.43;102541.25;4178501;28;20049;-65
2022/05/25 04:52:47;;;;;;;1.92;1.10;;;;;;;26.72;37.62;102538.44;4171004;28;20032;-66
2022/05/25 04:54:51;;;;;;;2.28;1.10;;;;;;;26.70;37.48;102535.88;4164486;28;20504;-66
2022/05/25 04:59:35;;;;;;;1.15;0.90;;;;;;;26.62;37.39;102505.59;4116601;28;20034;-66
2022/05/25 05:01:39;;;;;;;2.58;1.20;;;;;;;26.71;37.16;102520.75;4115719;28;20113;-66
2022/05/25 05:03:43;;;;;;;2.15;1.15;;;;;;;26.67;37.27;102508.41;4115464;28;20097;-66
2022/05/25 05:05:45;;;;;;;1.85;1.10;;;;;;;26.70;37.24;102519.03;4175130;28;20059;-65
2022/05/25 05:07:47;;;;;;;4.18;0.90;;;;;;;26.66;37.69;102517.91;4181265;28;20090;-66
2022/05/25 05:09:48;;;;;;;3.47;1.15;;;;;;;26.65;37.38;102523.81;4171850;28;20095;-66
2022/05/25 05:11:50;;;;;;;4.18;1.20;;;;;;;26.69;37.46;102522.97;4165564;28;20076;-66
2022/05/25 05:13:52;;;;;;;3.22;1.15;;;;;;;26.68;37.79;102521.31;4165390;28;20045;-65
2022/05/25 05:15:53;;;;;;;2.10;0.95;;;;;;;26.66;37.42;102512.31;4166053;28;20464;-66
2022/05/25 05:17:55;;;;;;;3.60;1.25;;;;;;;26.67;37.73;102528.06;4170126;28;20041;-66
2022/05/25 05:19:56;;;;;;;3.45;0.90;;;;;;;26.67;37.53;102525.25;4177942;28;20048;-66
2022/05/25 05:22:03;;;;;;;3.38;0.80;;;;;;;26.65;37.27;102527.47;4169971;28;20037;-65
2022/05/25 05:24:05;;;;;;;1.98;0.93;;;;;;;26.67;37.18;102527.22;4165925;28;20033;-65
2022/05/25 05:26:10;;;;;;;2.30;0.93;;;;;;;26.65;37.41;102521.03;4168970;28;20029;-65
2022/05/25 05:28:19;;;;;;;3.60;1.45;;;;;;;26.64;37.25;102528.59;4182435;28;20411;-66
2022/05/25 05:30:22;;;;;;;6.05;1.58;;;;;;;26.61;37.44;102520.72;4181259;28;20102;-66
2022/05/25 05:32:25;;;;;;;4.55;1.00;;;;;;;26.64;37.74;102528.59;4181177;28;20040;-67
2022/05/25 05:34:28;;;;;;;2.70;1.08;;;;;;;26.62;37.50;102525.25;4182118;28;20086;-66
2022/05/25 05:36:39;;;;;;;1.75;0.85;;;;;;;26.64;37.73;102520.19;4181346;28;20106;-66
2022/05/25 05:38:50;;;;;;;3.13;1.33;;;;;;;26.64;37.71;102525.78;4181794;28;20573;-66
2022/05/25 05:40:53;;;;;;;2.65;0.80;;;;;;;26.65;37.37;102535.06;4166254;28;20045;-65
2022/05/25 05:43:00;;;;;;;2.72;0.90;;;;;;;26.64;37.40;102531.41;4160401;28;20366;-67
2022/05/25 05:45:15;;;;;;;4.82;1.15;;;;;;;26.62;37.49;102533.69;4164934;28;20041;-66
2022/05/25 05:47:22;;;;;;;1.83;1.05;;;;;;;26.36;37.68;102485.91;4164927;28;20037;-67
2022/05/25 05:49:23;;;;;;;3.80;1.10;;;;;;;26.63;37.78;102540.13;4164729;28;20477;-66
2022/05/25 05:51:34;;;;;;;1.38;1.10;;;;;;;26.62;37.90;102542.09;4165520;28;20034;-65
2022/05/25 05:53:40;;;;;;;2.08;1.00;;;;;;;26.23;37.85;102485.63;4165053;28;20037;-66
2022/05/25 05:55:44;;;;;;;1.67;0.98;;;;;;;26.63;37.78;102546.59;4165052;28;20076;-66
2022/05/25 05:57:46;;;;;;;4.07;1.30;;;;;;;26.55;37.78;102545.16;4165018;28;20099;-66
2022/05/25 05:59:47;;;;;;;3.10;1.10;;;;;;;26.62;37.75;102550.53;4164076;28;20037;-66
2022/05/25 06:01:48;;;;;;;3.15;0.98;;;;;;;26.60;37.66;102552.75;4164919;28;20037;-66
2022/05/25 06:03:50;;;;;;;3.67;1.00;;;;;;;26.61;37.77;102551.63;4146405;28;20038;-68
2022/05/25 06:05:54;;;;;;;3.25;0.80;;;;;;;26.61;37.81;102548.81;4164436;28;20033;-66
2022/05/25 06:07:55;;;;;;;3.28;1.00;;;;;;;26.56;37.85;102541.22;4164429;28;20095;-66
2022/05/25 06:09:57;;;;;;;3.33;1.05;;;;;;;26.62;37.96;102550.53;4162775;28;20037;-65
2022/05/25 06:11:59;;;;;;;4.40;1.30;;;;;;;26.58;37.88;102538.16;4164481;28;20095;-65
2022/05/25 06:14:00;;;;;;;2.05;0.88;;;;;;;26.61;37.83;102537.59;4165442;28;20037;-65
2022/05/25 06:20:48;;;;;;;2.97;1.10;;;;;;;26.60;37.93;102530.28;4165910;28;20547;-65
2022/05/25 06:22:50;;;;;;;2.33;1.02;;;;;;;26.60;37.86;102524.69;4170417;28;20045;-65
2022/05/25 06:24:52;;;;;;;3.05;0.80;;;;;;;26.61;37.69;102523.53;4180374;28;20106;-66
2022/05/25 06:26:53;;;;;;;3.55;1.08;;;;;;;26.61;38.12;102515.13;4179280;28;20103;-66
2022/05/25 06:28:55;;;;;;;3.00;1.00;;;;;;;26.59;37.93;102509.78;4180669;28;20373;-66
2022/05/25 06:30:56;;;;;;;2.17;0.90;;;;;;;26.59;37.90;102517.38;4179543;28;20041;-65
2022/05/25 06:32:57;;;;;;;3.70;1.10;;;;;;;26.58;37.77;102510.09;4180305;28;20535;-65
2022/05/25 06:34:59;;;;;;;3.28;1.02;;;;;;;26.56;37.70;102513.16;4179105;28;20435;-65
2022/05/25 06:37:01;;;;;;;3.08;1.20;;;;;;;26.57;38.03;102511.19;4177559;28;20538;-66
2022/05/25 06:39:03;;;;;;;4.43;1.17;;;;;;;26.56;37.92;102507.53;4180559;28;20037;-66
2022/05/25 06:41:07;;;;;;;2.67;1.13;;;;;;;26.57;37.79;102499.97;4178069;28;20099;-65
2022/05/25 06:43:08;;;;;;;5.20;1.10;;;;;;;26.56;38.14;102512.31;4172241;28;20049;-65
2022/05/25 06:45:10;;;;;;;1.90;1.00;;;;;;;26.56;38.24;102512.31;4185086;28;20086;-65
2022/05/25 06:47:16;;;;;;;2.00;1.05;;;;;;;26.32;38.01;102473.56;4185514;28;20033;-65
2022/05/25 06:49:18;;;;;;;2.78;0.93;;;;;;;26.56;37.82;102512.31;4151886;28;20050;-65
2022/05/25 06:51:20;;;;;;;2.75;1.10;;;;;;;26.46;37.94;102489.88;4178964;28;20488;-66
2022/05/25 06:53:22;;;;;;;3.17;1.50;;;;;;;26.54;37.82;102500.53;4185949;28;20044;-66
2022/05/25 06:55:23;;;;;;;3.95;1.15;;;;;;;26.54;37.90;102492.13;4184245;28;20041;-65
2022/05/25 06:57:27;;;;;;;4.18;1.00;;;;;;;26.46;37.85;102485.09;4185380;28;20059;-65
2022/05/25 06:59:29;;;;;;;3.47;1.10;;;;;;;26.52;38.10;102488.75;4170169;28;20054;-65
2022/05/25 07:01:30;;;;;;;2.38;0.90;;;;;;;26.53;38.19;102476.41;4178388;28;20033;-66
2022/05/25 07:03:32;;;;;;;2.70;0.88;;;;;;;26.50;37.92;102480.59;4185941;28;20040;-65
2022/05/25 07:05:34;;;;;;;2.97;1.10;;;;;;;26.54;38.24;102497.75;4182490;28;20545;-65
2022/05/25 07:07:38;;;;;;;3.25;1.20;;;;;;;26.53;38.01;102507.28;4168689;28;20041;-65
2022/05/25 07:09:39;;;;;;;3.17;1.30;;;;;;;26.51;38.25;102509.53;4152651;28;20029;-65
2022/05/25 07:11:42;;;;;;;2.30;1.10;;;;;;;26.50;37.77;102499.41;4182596;28;20488;-66
2022/05/25 07:13:44;;;;;;;3.78;1.02;;;;;;;26.49;38.10;102511.78;4182207;28;20086;-66
2022/05/25 07:15:45;;;;;;;1.92;1.00;;;;;;;26.52;37.95;102516.81;4178855;28;20118;-66
2022/05/25 07:17:48;;;;;;;2.42;1.10;;;;;;;26.51;38.25;102520.75;4169541;28;20042;-65
2022/05/25 07:19:52;;;;;;;3.50;1.00;;;;;;;26.51;38.02;102523.56;4175241;28;20365;-66
2022/05/25 07:21:53;;;;;;;4.43;1.10;;;;;;;26.49;38.35;102521.03;4185084;28;20434;-65
2022/05/25 07:23:57;;;;;;;3.40;1.08;;;;;;;26.43;38.23;102507.25;4183303;28;20404;-66
2022/05/25 07:26:01;;;;;;;2.05;1.20;;;;;;;26.51;38.18;102520.75;4169897;28;20527;-66
2022/05/25 07:28:03;;;;;;;3.53;1.10;;;;;;;26.51;38.10;102526.38;4169320;28;20034;-66
2022/05/25 07:30:05;;;;;;;2.90;1.10;;;;;;;26.51;37.97;102515.13;4168665;28;20034;-66
2022/05/25 07:32:09;;;;;;;3.13;1.17;;;;;;;26.47;38.21;102508.41;4169179;28;20052;-66
2022/05/25 07:34:14;;;;;;;2.75;1.10;;;;;;;26.50;38.20;102510.66;4169432;28;20037;-66
2022/05/25 07:36:19;;;;;;;2.65;1.13;;;;;;;26.49;37.93;102506.16;4173441;28;20402;-65
2022/05/25 07:38:20;;;;;;;2.00;1.00;;;;;;;26.48;38.33;102507.25;4183025;28;20040;-66
2022/05/25 07:40:31;;;;;;;4.60;1.13;;;;;;;26.47;38.36;102519.63;4170105;28;20436;-66
2022/05/25 07:42:33;;;;;;;3.10;1.30;;;;;;;26.39;38.31;102500.50;4169374;28;20045;-66
2022/05/25 07:44:54;;;;;;;3.60;1.27;;;;;;;26.41;38.02;102504.72;4169172;28;20535;-66
2022/05/25 07:46:56;;;;;;;2.70;1.05;;;;;;;26.47;38.00;102519.63;4169382;28;20178;-66
2022/05/25 07:48:57;;;;;;;3.20;1.10;;;;;;;26.38;38.22;102499.66;4168275;28;20049;-66
2022/05/25 07:50:59;;;;;;;3.92;1.10;;;;;;;26.41;38.01;102507.53;4169137;28;20160;-66
2022/05/25 07:53:02;;;;;;;2.47;1.23;;;;;;;26.45;38.22;102516.28;4165328;28;20076;-66
2022/05/25 07:55:06;;;;;;;2.08;1.20;;;;;;;26.36;38.33;102508.38;4167546;28;20033;-66
2022/05/25 07:57:11;;;;;;;2.10;1.20;;;;;;;26.05;38.19;102456.16;4166884;28;20030;-66
2022/05/25 07:59:14;;;;;;;3.75;1.10;;;;;;;26.43;38.38;102519.34;4166259;28;20107;-66
2022/05/25 08:06:07;;;;;;;3.42;1.23;;;;;;;26.42;38.10;102522.41;4168805;28;20099;-66
2022/05/25 08:08:15;;;;;;;2.35;1.10;;;;;;;26.44;38.07;102535.09;4166026;28;20037;-66
2022/05/25 08:10:24;;;;;;;4.65;1.10;;;;;;;26.42;37.96;102533.63;4166910;28;20079;-66
2022/05/25 08:12:30;;;;;;;4.00;1.33;;;;;;;26.39;38.16;102528.56;4168733;28;20087;-66
2022/05/25 08:14:31;;;;;;;2.38;1.08;;;;;;;26.41;38.10;102537.56;4166474;28;20107;-66
2022/05/25 08:16:35;;;;;;;2.13;1.35;;;;;;;26.36;38.10;102528.03;4166061;28;20176;-66
2022/05/25 08:18:37;;;;;;;2.97;0.88;;;;;;;26.40;38.65;102536.72;4173926;28;20091;-66
2022/05/25 08:20:39;;;;;;;2.25;1.00;;;;;;;26.40;38.42;102535.88;4177007;28;20079;-67
2022/05/25 08:22:41;;;;;;;2.75;1.00;;;;;;;26.39;38.16;102540.66;4177426;28;20029;-66
2022/05/25 08:24:43;;;;;;;3.00;1.17;;;;;;;26.40;38.36;102545.16;4169544;28;20070;-66
2022/05/25 08:26:45;;;;;;;3.60;1.30;;;;;;;26.40;38.46;102533.09;4180136;28;20037;-66
2022/05/25 08:28:46;;;;;;;1.45;1.00;;;;;;;26.38;38.17;102532.50;4175457;28;20057;-66
2022/05/25 08:30:47;;;;;;;3.25;1.35;;;;;;;26.40;38.56;102535.88;4168504;28;20048;-66
2022/05/25 08:32:49;;;;;;;3.40;1.35;;;;;;;26.35;38.31;102534.75;4172257;28;20041;-65
2022/05/25 08:34:51;;;;;;;3.97;1.15;;;;;;;26.38;38.26;102540.94;4165992;28;20552;-66
2022/05/25 08:36:52;;;;;;;2.30;0.82;;;;;;;26.39;38.53;102545.41;4165171;28;20103;-66
2022/05/25 08:38:55;;;;;;;2.90;1.20;;;;;;;26.39;38.64;102545.41;4166756;28;20092;-66
2022/05/25 08:40:58;;;;;;;1.67;1.00;;;;;;;26.23;38.61;102513.69;4170660;28;20041;-66
2022/05/25 08:43:11;;;;;;;3.40;1.20;;;;;;;26.38;38.53;102543.72;4182830;28;20020;-66
2022/05/25 08:45:13;;;;;;;2.33;1.10;;;;;;;26.22;38.81;102518.47;4177985;28;20034;-66
2022/05/25 08:47:14;;;;;;;4.05;1.33;;;;;;;26.36;38.45;102544.84;4158030;28;20473;-66
2022/05/25 08:49:17;;;;;;;6.55;1.15;;;;;;;26.38;38.36;102526.88;4181934;28;20053;-66
2022/05/25 08:51:22;;;;;;;4.72;1.20;;;;;;;26.38;38.57;102526.88;4182160;28;20036;-66
2022/05/25 08:53:24;;;;;;;;;;;;;;;26.35;38.48;102529.16;4182621;28;20037;-66
2022/05/25 08:55:44;;;;;;;2.72;1.10;;;;;;;26.41;38.22;102529.16;4181557;28;19990;-66
2022/05/25 08:57:55;;;;;;;3.30;0.98;;;;;;;26.40;38.36;102530.28;4175005;28;20429;-67
2022/05/25 09:00:17;;;;;;;1.42;1.10;;;;;;;26.38;38.47;102538.13;4165549;28;20476;-66
2022/05/25 09:02:56;;;;;;;3.17;1.02;;;;;;;26.36;38.54;102530.00;4165180;28;20041;-66
2022/05/25 09:05:18;;;;;;;2.17;1.05;;;;;;;26.36;38.60;102530.81;4181007;28;20053;-66
2022/05/25 09:07:56;;;;;;;3.83;1.13;;;;;;;26.34;38.31;102535.91;4181349;28;20041;-66
2022/05/25 09:09:58;;;;;;;5.00;1.25;;;;;;;26.36;38.17;102536.44;4153854;28;20111;-66
2022/05/25 09:12:06;;;;;;;4.07;1.15;;;;;;;26.36;38.38;102546.81;4181880;28;20110;-66
2022/05/25 09:14:22;;;;;;;2.90;1.17;;;;;;;26.34;38.17;102538.69;4182432;28;20029;-65
2022/05/25 09:16:27;;;;;;;4.45;1.20;;;;;;;26.33;38.22;102536.16;4180382;28;20044;-66
2022/05/25 09:18:33;;;;;;;1.48;0.88;;;;;;;26.32;38.43;102535.31;4164984;28;20100;-66
2022/05/25 09:20:40;;;;;;;4.38;1.40;;;;;;;26.31;38.11;102539.25;4170974;28;20111;-66
2022/05/25 09:22:44;;;;;;;2.65;1.30;;;;;;;26.31;38.34;102539.25;4171969;28;20473;-66
2022/05/25 09:24:50;;;;;;;7.03;1.40;;;;;;;26.32;38.20;102537.28;4165007;28;20167;-66
2022/05/25 09:26:52;;;;;;;3.47;1.20;;;;;;;26.31;38.42;102546.81;4175145;28;20033;-66
2022/05/25 09:29:01;;;;;;;2.15;1.27;;;;;;;26.30;38.01;102560.03;4181631;28;20091;-66
2022/05/25 09:31:05;;;;;;;1.70;1.10;;;;;;;26.29;38.43;102563.94;4181643;28;20365;-66
2022/05/25 09:33:20;;;;;;;1.52;0.93;;;;;;;26.27;38.30;102566.19;4181483;28;20041;-67
2022/05/25 09:35:44;;;;;;;2.28;1.42;;;;;;;26.27;38.59;102570.97;4181982;28;20029;-67
2022/05/25 09:37:53;;;;;;;4.97;1.20;;;;;;;26.29;38.75;102580.75;4179543;28;20094;-65
2022/05/25 09:39:54;;;;;;;3.00;1.30;;;;;;;26.23;38.79;102578.25;4164906;28;20467;-66
2022/05/25 09:41:59;;;;;;;4.55;1.10;;;;;;;26.27;38.47;102583.00;4165477;28;20033;-66
2022/05/25 09:44:03;;;;;;;2.38;1.30;;;;;;;26.23;38.34;102587.50;4164685;28;20045;-66
2022/05/25 09:46:10;;;;;;;3.58;1.10;;;;;;;26.27;38.46;102602.66;4164884;28;20041;-66
2022/05/25 09:48:22;;;;;;;2.33;1.20;;;;;;;26.18;38.27;102590.28;4164466;28;20066;-66
2022/05/25 09:50:30;;;;;;;3.20;1.27;;;;;;;26.28;38.30;102612.75;4165330;28;20037;-66
2022/05/25 09:52:43;;;;;;;2.03;1.13;;;;;;;26.25;38.11;102613.34;4164548;28;20103;-66
2022/05/25 09:54:55;;;;;;;1.77;1.02;;;;;;;26.25;38.43;102618.94;4168228;28;20045;-66
2022/05/25 09:57:15;;;;;;;4.40;1.33;;;;;;;26.24;38.55;102611.63;4177991;28;20107;-66
2022/05/25 09:59:35;;;;;;;1.70;1.20;;;;;;;26.21;38.63;102617.81;4179430;28;20550;-66
2022/05/25 10:01:45;;;;;;;3.75;1.10;;;;;;;26.15;38.30;102602.06;4167977;28;20041;-66
2022/05/25 10:03:46;;;;;;;3.72;1.55;;;;;;;26.22;38.48;102625.09;4178363;28;20500;-66